createdAt,value
2022-08-30T00:01:03.418Z,16.00
2022-08-30T00:03:34.208Z,16.00
2022-08-30T00:06:01.190Z,16.00
2022-08-30T00:08:28.039Z,16.00
2022-08-30T00:10:55.091Z,15.90
2022-08-30T00:13:23.316Z,15.90
2022-08-30T00:15:50.875Z,15.80
2022-08-30T00:18:18.874Z,15.80
2022-08-30T00:20:47.896Z,15.80
2022-08-30T00:23:15.860Z,15.70
2022-08-30T00:25:44.266Z,15.70
2022-08-30T00:28:12.720Z,15.70
2022-08-30T00:30:41.131Z,15.70
2022-08-30T00:33:08.028Z,15.70
2022-08-30T00:35:34.889Z,15.70
2022-08-30T00:38:02.162Z,15.70
2022-08-30T00:40:30.883Z,15.70
2022-08-30T00:43:00.054Z,15.60
2022-08-30T00:45:35.344Z,15.60
2022-08-30T00:48:02.801Z,15.60
2022-08-30T00:50:34.229Z,15.60
2022-08-30T00:53:03.789Z,15.50
2022-08-30T00:55:30.799Z,15.50
2022-08-30T00:58:02.037Z,15.40
2022-08-30T01:00:31.709Z,15.40
2022-08-30T01:02:59.784Z,15.40
2022-08-30T01:05:26.671Z,15.40
2022-08-30T01:07:53.567Z,15.30
2022-08-30T01:10:20.750Z,15.30
2022-08-30T01:12:47.905Z,15.30
2022-08-30T01:15:15.312Z,15.30
2022-08-30T01:17:45.292Z,15.20
2022-08-30T01:20:18.424Z,15.20
2022-08-30T01:22:50.914Z,15.20
2022-08-30T01:25:24.502Z,15.20
2022-08-30T01:27:56.883Z,15.20
2022-08-30T01:30:24.200Z,15.10
2022-08-30T01:33:00.716Z,15.10
2022-08-30T01:35:28.720Z,15.10
2022-08-30T01:37:55.951Z,15.00
2022-08-30T01:40:23.129Z,15.00
2022-08-30T01:42:50.187Z,15.00
2022-08-30T01:45:17.751Z,15.00
2022-08-30T01:47:44.614Z,15.00
2022-08-30T01:50:12.182Z,15.00
2022-08-30T01:52:39.685Z,15.00
2022-08-30T01:55:07.435Z,15.00
2022-08-30T01:57:34.321Z,14.90
2022-08-30T02:00:01.343Z,14.90
2022-08-30T02:02:29.808Z,14.90
2022-08-30T02:04:57.199Z,14.90
2022-08-30T02:07:26.145Z,14.90
2022-08-30T02:09:53.628Z,14.90
2022-08-30T02:12:20.785Z,14.90
2022-08-30T02:14:47.593Z,14.90
2022-08-30T02:17:15.563Z,14.90
2022-08-30T02:19:43.274Z,14.80
2022-08-30T02:22:10.161Z,14.80
2022-08-30T02:24:37.043Z,14.80
2022-08-30T02:27:04.780Z,14.80
2022-08-30T02:29:31.644Z,14.80
2022-08-30T02:31:59.264Z,14.80
2022-08-30T02:34:26.081Z,14.80
2022-08-30T02:36:53.446Z,14.70
2022-08-30T02:39:20.332Z,14.70
2022-08-30T02:41:47.218Z,14.70
2022-08-30T02:44:15.324Z,14.70
2022-08-30T02:46:42.286Z,14.70
2022-08-30T02:49:30.349Z,14.60
2022-08-30T02:51:56.274Z,14.60
2022-08-30T02:54:23.198Z,14.60
2022-08-30T02:56:50.384Z,14.60
2022-08-30T02:59:18.456Z,14.60
2022-08-30T03:01:45.394Z,14.60
2022-08-30T03:04:12.408Z,14.70
2022-08-30T03:06:39.213Z,14.70
2022-08-30T03:09:06.139Z,14.60
2022-08-30T03:11:32.998Z,14.70
2022-08-30T03:13:59.992Z,14.60
2022-08-30T03:16:27.079Z,14.60
2022-08-30T03:18:53.928Z,14.60
2022-08-30T03:21:20.702Z,14.50
2022-08-30T03:23:47.905Z,14.50
2022-08-30T03:26:15.239Z,14.50
2022-08-30T03:28:43.351Z,14.40
2022-08-30T03:31:11.546Z,14.40
2022-08-30T03:33:40.834Z,14.40
2022-08-30T03:36:09.595Z,14.30
2022-08-30T03:38:37.280Z,14.30
2022-08-30T03:41:05.809Z,14.30
2022-08-30T03:43:34.440Z,14.30
2022-08-30T03:46:02.141Z,14.30
2022-08-30T03:48:30.256Z,14.30
2022-08-30T03:50:57.379Z,14.30
2022-08-30T03:53:27.009Z,14.20
2022-08-30T03:55:54.878Z,14.20
2022-08-30T03:58:22.537Z,14.20
2022-08-30T04:00:49.473Z,14.20
2022-08-30T04:03:16.694Z,14.20
2022-08-30T04:05:43.718Z,14.20
2022-08-30T04:08:10.702Z,14.10
2022-08-30T04:10:38.331Z,14.10
2022-08-30T04:13:05.969Z,14.10
2022-08-30T04:15:32.860Z,14.10
2022-08-30T04:17:59.746Z,14.10
2022-08-30T04:20:27.369Z,14.10
2022-08-30T04:22:54.174Z,14.10
2022-08-30T04:25:21.210Z,14.00
2022-08-30T04:27:49.283Z,14.00
2022-08-30T04:30:17.236Z,14.00
2022-08-30T04:32:45.156Z,14.00
2022-08-30T04:35:13.763Z,14.00
2022-08-30T04:37:41.856Z,14.00
2022-08-30T04:40:09.840Z,14.00
2022-08-30T04:42:37.143Z,14.00
2022-08-30T04:45:07.638Z,13.90
2022-08-30T04:47:34.984Z,13.90
2022-08-30T04:50:02.874Z,13.90
2022-08-30T04:52:29.804Z,13.90
2022-08-30T04:54:59.933Z,13.90
2022-08-30T04:57:27.968Z,13.90
2022-08-30T04:59:54.830Z,13.90
2022-08-30T05:02:22.089Z,13.80
2022-08-30T05:05:07.403Z,13.90
2022-08-30T05:07:34.507Z,13.90
2022-08-30T05:10:01.865Z,13.90
2022-08-30T05:12:28.619Z,13.90
2022-08-30T05:14:57.609Z,13.90
2022-08-30T05:17:25.343Z,13.90
2022-08-30T05:19:52.391Z,13.90
2022-08-30T05:22:19.132Z,13.90
2022-08-30T05:24:45.914Z,13.90
2022-08-30T05:27:12.732Z,13.90
2022-08-30T05:29:39.549Z,14.00
2022-08-30T05:32:06.384Z,14.00
2022-08-30T05:34:33.313Z,14.10
2022-08-30T05:37:00.214Z,14.20
2022-08-30T05:39:45.976Z,14.20
2022-08-30T05:42:16.990Z,14.20
2022-08-30T05:44:44.341Z,14.30
2022-08-30T05:47:11.224Z,14.40
2022-08-30T05:49:37.990Z,14.40
2022-08-30T05:52:05.353Z,14.50
2022-08-30T05:54:32.195Z,14.60
2022-08-30T05:56:59.561Z,14.70
2022-08-30T05:59:26.449Z,14.70
2022-08-30T06:01:57.718Z,14.80
2022-08-30T06:04:24.819Z,14.90
2022-08-30T06:06:51.673Z,14.90
2022-08-30T06:09:19.016Z,15.00
2022-08-30T06:11:46.731Z,15.00
2022-08-30T06:14:14.783Z,15.00
2022-08-30T06:16:47.136Z,15.10
2022-08-30T06:19:15.474Z,15.10
2022-08-30T06:21:44.028Z,15.20
2022-08-30T06:24:11.924Z,15.20
2022-08-30T06:26:41.624Z,15.30
2022-08-30T06:29:10.519Z,15.40
2022-08-30T06:31:37.656Z,15.40
2022-08-30T06:34:07.788Z,15.50
2022-08-30T06:36:34.734Z,15.60
2022-08-30T06:39:01.622Z,15.80
2022-08-30T06:41:32.023Z,15.90
2022-08-30T06:44:01.788Z,15.90
2022-08-30T06:46:34.697Z,16.00
2022-08-30T06:49:02.149Z,16.00
2022-08-30T06:51:31.533Z,16.10
2022-08-30T06:53:58.985Z,16.20
2022-08-30T06:56:27.607Z,16.50
2022-08-30T06:58:54.847Z,16.50
2022-08-30T07:01:24.351Z,16.60
2022-08-30T07:03:52.197Z,16.60
2022-08-30T07:06:19.942Z,16.70
2022-08-30T07:08:48.057Z,16.70
2022-08-30T07:11:14.893Z,16.80
2022-08-30T07:13:41.714Z,16.80
2022-08-30T07:16:13.617Z,16.90
2022-08-30T07:18:56.306Z,16.80
2022-08-30T07:21:27.646Z,16.90
2022-08-30T07:23:57.161Z,16.90
2022-08-30T07:26:27.781Z,17.00
2022-08-30T07:28:56.473Z,17.10
2022-08-30T07:31:24.562Z,17.20
2022-08-30T07:33:52.345Z,17.30
2022-08-30T07:36:19.592Z,17.40
2022-08-30T07:38:46.932Z,17.40
2022-08-30T07:41:19.511Z,17.50
2022-08-30T07:43:46.801Z,17.60
2022-08-30T07:46:13.898Z,17.70
2022-08-30T07:48:41.198Z,17.80
2022-08-30T07:51:17.214Z,17.90
2022-08-30T07:53:44.193Z,18.00
2022-08-30T07:59:09.925Z,18.30
2022-08-30T08:01:36.919Z,18.50
2022-08-30T08:04:03.807Z,18.60
2022-08-30T08:06:34.680Z,18.70
2022-08-30T08:09:04.311Z,18.90
2022-08-30T08:11:33.737Z,19.00
2022-08-30T08:14:01.412Z,19.00
2022-08-30T08:16:29.955Z,19.20
2022-08-30T08:18:57.543Z,19.40
2022-08-30T08:21:25.676Z,19.40
2022-08-30T08:23:53.060Z,19.60
2022-08-30T08:26:20.788Z,19.70
2022-08-30T08:28:48.085Z,19.80
2022-08-30T08:31:21.217Z,19.80
2022-08-30T08:33:48.593Z,19.90
2022-08-30T08:36:16.203Z,20.00
2022-08-30T08:38:43.292Z,20.10
2022-08-30T08:41:32.252Z,20.20
2022-08-30T08:43:59.609Z,20.50
2022-08-30T08:46:40.391Z,20.60
2022-08-30T08:49:12.534Z,20.70
2022-08-30T08:51:59.128Z,20.80
2022-08-30T08:54:46.701Z,21.00
2022-08-30T08:57:16.521Z,21.10
2022-08-30T08:59:45.414Z,21.20
2022-08-30T09:02:25.884Z,21.40
2022-08-30T09:04:58.472Z,21.40
2022-08-30T09:07:29.852Z,21.60
2022-08-30T09:10:00.531Z,21.60
2022-08-30T09:12:28.006Z,21.60
2022-08-30T09:15:01.461Z,21.70
2022-08-30T09:17:29.661Z,21.70
2022-08-30T09:20:00.274Z,21.90
2022-08-30T09:22:37.260Z,22.00
2022-08-30T09:25:18.053Z,22.10
2022-08-30T09:27:47.443Z,22.10
2022-08-30T09:30:23.978Z,22.20
2022-08-30T09:32:58.039Z,22.20
2022-08-30T09:35:38.774Z,22.30
2022-08-30T09:38:10.903Z,22.20
2022-08-30T09:40:47.061Z,22.20
2022-08-30T09:43:16.585Z,22.20
2022-08-30T09:45:49.709Z,22.30
2022-08-30T09:48:35.239Z,22.40
2022-08-30T09:51:11.542Z,22.50
2022-08-30T09:54:17.072Z,22.60
2022-08-30T09:57:02.042Z,22.40
2022-08-30T09:59:42.804Z,22.50
2022-08-30T10:02:21.598Z,22.50
2022-08-30T10:05:02.027Z,22.50
2022-08-30T10:07:43.322Z,22.60
2022-08-30T10:10:45.645Z,22.70
2022-08-30T10:13:31.081Z,22.90
2022-08-30T10:16:31.629Z,23.00
2022-08-30T10:19:16.977Z,23.00
2022-08-30T10:21:54.882Z,23.00
2022-08-30T10:24:31.244Z,23.00
2022-08-30T10:27:12.918Z,23.00
2022-08-30T10:29:54.846Z,23.10
2022-08-30T10:32:28.402Z,23.10
2022-08-30T10:35:07.919Z,23.10
2022-08-30T10:37:48.058Z,23.30
2022-08-30T10:40:43.975Z,23.40
2022-08-30T10:43:22.007Z,23.50
2022-08-30T10:45:50.467Z,23.40
2022-08-30T10:48:20.336Z,23.40
2022-08-30T10:50:56.099Z,23.40
2022-08-30T10:53:32.115Z,23.40
2022-08-30T10:56:08.584Z,23.40
2022-08-30T10:58:40.836Z,23.30
2022-08-30T11:01:46.596Z,23.40
2022-08-30T11:05:09.114Z,23.40
2022-08-30T11:07:48.363Z,23.30
2022-08-30T11:10:59.961Z,23.40
2022-08-30T11:13:40.389Z,23.40
2022-08-30T11:16:34.239Z,23.40
2022-08-30T11:19:01.224Z,23.60
2022-08-30T11:21:40.991Z,23.50
2022-08-30T11:24:12.620Z,23.60
2022-08-30T11:26:55.961Z,23.60
2022-08-30T11:29:46.101Z,23.70
2022-08-30T11:32:15.880Z,23.80
2022-08-30T11:34:50.549Z,23.90
2022-08-30T11:37:42.952Z,23.80
2022-08-30T11:40:21.328Z,23.90
2022-08-30T11:42:51.181Z,23.90
2022-08-30T11:45:26.798Z,23.80
2022-08-30T11:48:00.997Z,23.80
2022-08-30T11:51:15.769Z,23.80
2022-08-30T11:54:21.315Z,23.70
2022-08-30T11:57:10.311Z,23.70
2022-08-30T11:59:50.409Z,23.60
2022-08-30T12:02:47.515Z,23.70
2022-08-30T12:05:42.841Z,23.60
2022-08-30T12:08:28.674Z,23.60
2022-08-30T12:11:12.046Z,23.40
2022-08-30T12:13:44.991Z,23.30
2022-08-30T12:16:20.941Z,23.30
2022-08-30T12:18:53.056Z,23.30
2022-08-30T12:21:22.186Z,23.30
2022-08-30T12:24:23.039Z,23.40
2022-08-30T12:26:51.686Z,23.50
2022-08-30T12:29:27.580Z,23.60
2022-08-30T12:31:58.264Z,23.60
2022-08-30T12:34:28.589Z,23.70
2022-08-30T12:37:23.569Z,23.60
2022-08-30T12:40:05.378Z,23.70
2022-08-30T12:42:36.516Z,23.70
2022-08-30T12:45:11.527Z,23.70
2022-08-30T12:47:42.074Z,23.80
2022-08-30T12:50:18.131Z,23.80
2022-08-30T12:52:48.601Z,23.60
2022-08-30T12:55:29.211Z,23.60
2022-08-30T12:58:07.505Z,23.60
2022-08-30T13:00:43.622Z,23.70
2022-08-30T13:03:33.884Z,23.70
2022-08-30T13:06:02.736Z,23.70
2022-08-30T13:08:45.745Z,23.60
2022-08-30T13:11:29.352Z,23.60
2022-08-30T13:14:21.942Z,23.40
2022-08-30T13:16:51.236Z,23.40
2022-08-30T13:19:38.794Z,23.50
2022-08-30T13:22:07.724Z,23.60
2022-08-30T13:24:34.762Z,23.60
2022-08-30T13:27:11.865Z,23.60
2022-08-30T13:29:38.840Z,23.60
2022-08-30T13:32:05.721Z,23.60
2022-08-30T13:34:35.949Z,23.60
2022-08-30T13:37:03.602Z,23.50
2022-08-30T13:39:31.715Z,23.50
2022-08-30T13:42:31.738Z,23.40
2022-08-30T13:44:47.954Z,23.50
2022-08-30T13:47:32.556Z,23.60
2022-08-30T13:49:59.881Z,23.70
2022-08-30T13:52:30.634Z,23.70
2022-08-30T13:54:58.151Z,23.60
2022-08-30T14:00:21.918Z,23.50
2022-08-30T14:02:54.491Z,23.40
2022-08-30T14:11:12.576Z,23.40
2022-08-30T14:14:14.634Z,23.40
2022-08-30T14:16:28.491Z,23.50
2022-08-30T14:18:56.417Z,23.50
2022-08-30T14:21:24.822Z,23.50
2022-08-30T14:23:53.438Z,23.60
2022-08-30T14:26:27.472Z,23.70
2022-08-30T14:28:59.859Z,23.70
2022-08-30T14:31:26.695Z,23.70
2022-08-30T14:33:53.492Z,23.70
2022-08-30T14:36:20.791Z,23.60
2022-08-30T14:38:48.559Z,23.60
2022-08-30T14:41:15.933Z,23.50
2022-08-30T14:43:42.837Z,23.60
2022-08-30T14:46:10.476Z,23.50
2022-08-30T14:48:38.451Z,23.50
2022-08-30T14:51:16.984Z,23.40
2022-08-30T14:53:45.043Z,23.40
2022-08-30T14:56:16.030Z,23.50
2022-08-30T14:58:43.322Z,23.40
2022-08-30T15:01:12.313Z,23.40
2022-08-30T15:03:41.239Z,23.40
2022-08-30T15:06:09.236Z,23.40
2022-08-30T15:08:37.604Z,23.30
2022-08-30T15:11:11.521Z,23.40
2022-08-30T15:13:39.848Z,23.30
2022-08-30T15:16:13.137Z,23.40
2022-08-30T15:18:41.754Z,23.40
2022-08-30T15:21:09.673Z,23.30
2022-08-30T15:23:37.076Z,23.30
2022-08-30T15:26:04.454Z,23.30
2022-08-30T15:28:31.496Z,23.20
2022-08-30T15:31:00.945Z,23.10
2022-08-30T15:33:32.811Z,23.00
2022-08-30T15:36:02.049Z,23.00
2022-08-30T15:38:31.108Z,23.00
2022-08-30T15:41:02.241Z,23.00
2022-08-30T15:43:29.459Z,23.00
2022-08-30T15:46:16.227Z,23.10
2022-08-30T15:48:45.643Z,23.20
2022-08-30T15:51:13.027Z,23.20
2022-08-30T15:53:40.614Z,23.20
2022-08-30T15:56:07.548Z,23.20
2022-08-30T15:58:35.207Z,23.20
2022-08-30T16:01:02.384Z,23.10
2022-08-30T16:03:33.369Z,23.00
2022-08-30T16:06:01.079Z,23.00
2022-08-30T16:08:30.550Z,22.90
2022-08-30T16:10:57.375Z,22.80
2022-08-30T16:13:24.493Z,22.70
2022-08-30T16:15:51.785Z,22.60
2022-08-30T16:18:19.123Z,22.50
2022-08-30T16:20:45.904Z,22.50
2022-08-30T16:23:12.948Z,22.60
2022-08-30T16:25:41.383Z,22.60
2022-08-30T16:28:09.480Z,22.50
2022-08-30T16:30:36.905Z,22.50
2022-08-30T16:33:03.900Z,22.60
2022-08-30T16:35:35.274Z,22.50
2022-08-30T16:38:02.106Z,22.50
2022-08-30T16:40:29.420Z,22.50
2022-08-30T16:42:56.263Z,22.50
2022-08-30T16:45:23.145Z,22.50
2022-08-30T16:47:51.061Z,22.40
2022-08-30T16:50:21.473Z,22.30
2022-08-30T16:52:48.233Z,22.30
2022-08-30T16:55:15.109Z,22.20
2022-08-30T16:57:41.943Z,22.20
2022-08-30T17:00:13.214Z,22.10
2022-08-30T17:02:40.641Z,22.00
2022-08-30T17:05:12.770Z,22.00
2022-08-30T17:07:40.176Z,21.90
2022-08-30T17:10:07.224Z,21.80
2022-08-30T17:12:35.893Z,21.90
2022-08-30T17:15:05.464Z,21.80
2022-08-30T17:17:33.105Z,21.80
2022-08-30T17:20:01.083Z,21.70
2022-08-30T17:22:28.637Z,21.60
2022-08-30T17:24:55.700Z,21.60
2022-08-30T17:27:23.149Z,21.50
2022-08-30T17:29:51.161Z,21.50
2022-08-30T17:32:18.208Z,21.40
2022-08-30T17:34:45.920Z,21.40
2022-08-30T17:37:14.100Z,21.30
2022-08-30T17:39:56.083Z,21.30
2022-08-30T17:42:23.375Z,21.20
2022-08-30T17:45:06.640Z,21.20
2022-08-30T17:47:39.909Z,21.10
2022-08-30T17:53:39.844Z,21.00
2022-08-30T17:56:11.399Z,20.90
2022-08-30T17:59:06.526Z,20.90
2022-08-30T18:01:43.442Z,20.80
2022-08-30T18:04:12.846Z,20.70
2022-08-30T18:06:48.018Z,20.60
2022-08-30T18:09:16.339Z,20.50
2022-08-30T18:11:44.317Z,20.50
2022-08-30T18:14:11.543Z,20.40
2022-08-30T18:16:49.959Z,20.30
2022-08-30T18:19:20.600Z,20.30
2022-08-30T18:21:47.555Z,20.20
2022-08-30T18:24:16.635Z,20.10
2022-08-30T18:26:43.477Z,20.00
2022-08-30T18:29:11.470Z,20.00
2022-08-30T18:31:38.626Z,19.90
2022-08-30T18:34:07.109Z,19.80
2022-08-30T18:36:40.510Z,19.80
2022-08-30T18:39:08.251Z,19.70
2022-08-30T18:41:39.196Z,19.60
2022-08-30T18:44:26.568Z,19.50
2022-08-30T18:46:57.359Z,19.40
2022-08-30T18:49:26.440Z,19.40
2022-08-30T18:51:53.709Z,19.30
2022-08-30T18:54:20.657Z,19.20
2022-08-30T18:56:48.199Z,19.10
2022-08-30T18:59:15.767Z,19.10
2022-08-30T19:01:42.661Z,19.10
2022-08-30T19:04:11.272Z,19.10
2022-08-30T19:06:50.333Z,19.00
2022-08-30T19:09:17.513Z,18.90
2022-08-30T19:11:44.452Z,18.90
2022-08-30T19:14:11.359Z,18.90
2022-08-30T19:16:40.883Z,18.90
2022-08-30T19:19:10.056Z,18.90
2022-08-30T19:21:40.335Z,18.80
2022-08-30T19:24:08.297Z,18.90
2022-08-30T19:26:37.342Z,18.90
2022-08-30T19:29:05.793Z,18.90
2022-08-30T19:31:33.373Z,18.90
2022-08-30T19:34:00.187Z,18.90
2022-08-30T19:36:28.833Z,18.90
2022-08-30T19:38:55.856Z,18.90
2022-08-30T19:41:23.711Z,18.90
2022-08-30T19:43:51.698Z,18.90
2022-08-30T19:46:18.889Z,18.80
2022-08-30T19:48:45.725Z,18.80
2022-08-30T19:51:29.259Z,18.80
2022-08-30T19:54:01.619Z,18.80
2022-08-30T19:56:28.920Z,18.80
2022-08-30T19:58:56.475Z,18.70
2022-08-30T20:01:33.565Z,18.70
2022-08-30T20:04:02.363Z,18.70
2022-08-30T20:06:30.823Z,18.70
2022-08-30T20:08:59.870Z,18.70
2022-08-30T20:11:28.581Z,18.70
2022-08-30T20:13:56.260Z,18.70
2022-08-30T20:16:37.120Z,18.70
2022-08-30T20:19:11.794Z,18.60
2022-08-30T20:21:39.084Z,18.70
2022-08-30T20:24:09.582Z,18.60
2022-08-30T20:26:38.205Z,18.60
2022-08-30T20:29:06.021Z,18.60
2022-08-30T20:31:34.386Z,18.60
2022-08-30T20:34:01.995Z,18.60
2022-08-30T20:36:29.329Z,18.60
2022-08-30T20:38:56.226Z,18.60
2022-08-30T20:41:26.925Z,18.50
2022-08-30T20:43:54.316Z,18.50
2022-08-30T20:46:21.826Z,18.50
2022-08-30T20:48:48.653Z,18.50
2022-08-30T20:51:18.452Z,18.40
2022-08-30T20:53:45.892Z,18.40
2022-08-30T20:56:19.542Z,18.40
2022-08-30T20:58:46.416Z,18.30
2022-08-30T21:01:14.340Z,18.30
2022-08-30T21:03:42.181Z,18.30
2022-08-30T21:06:11.617Z,18.30
2022-08-30T21:08:39.910Z,18.30
2022-08-30T21:11:07.007Z,18.30
2022-08-30T21:13:34.067Z,18.20
2022-08-30T21:16:03.646Z,18.20
2022-08-30T21:18:33.236Z,18.20
2022-08-30T21:21:21.519Z,18.10
2022-08-30T21:23:59.048Z,18.20
2022-08-30T21:26:26.335Z,18.10
2022-08-30T21:28:54.602Z,18.10
2022-08-30T21:31:26.483Z,18.10
2022-08-30T21:33:54.933Z,18.10
2022-08-30T21:36:42.722Z,18.10
2022-08-30T21:39:09.736Z,18.00
2022-08-30T21:41:39.939Z,18.00
2022-08-30T21:44:11.052Z,18.00
2022-08-30T21:46:38.433Z,18.00
2022-08-30T21:49:07.944Z,18.00
2022-08-30T21:51:40.352Z,18.00
2022-08-30T21:54:09.663Z,18.10
2022-08-30T21:56:38.408Z,18.10
2022-08-30T21:59:07.046Z,18.10
2022-08-30T22:01:34.911Z,18.10
2022-08-30T22:04:06.421Z,18.20
2022-08-30T22:06:35.330Z,18.10
2022-08-30T22:09:05.426Z,18.10
2022-08-30T22:11:34.977Z,18.10
2022-08-30T22:14:02.449Z,18.10
2022-08-30T22:16:30.266Z,18.10
2022-08-30T22:18:57.448Z,18.10
2022-08-30T22:21:26.216Z,18.10
2022-08-30T22:23:53.032Z,18.00
2022-08-30T22:26:21.211Z,18.00
2022-08-30T22:28:48.332Z,18.00
2022-08-30T22:31:17.647Z,18.00
2022-08-30T22:33:48.163Z,18.00
2022-08-30T22:36:24.056Z,18.00
2022-08-30T22:39:03.947Z,18.00
2022-08-30T22:41:34.185Z,18.00
2022-08-30T22:44:02.793Z,17.90
2022-08-30T22:46:33.942Z,17.90
2022-08-30T22:49:02.593Z,18.00
2022-08-30T22:51:29.654Z,17.90
2022-08-30T22:53:59.396Z,17.90
2022-08-30T22:56:27.565Z,17.90
2022-08-30T22:58:55.890Z,17.90
2022-08-30T23:01:30.619Z,17.90
2022-08-30T23:04:01.199Z,17.90
2022-08-30T23:06:29.073Z,17.90
2022-08-30T23:08:56.166Z,17.80
2022-08-30T23:11:23.109Z,17.80
2022-08-30T23:13:50.183Z,17.80
2022-08-30T23:16:17.771Z,17.80
2022-08-30T23:18:46.572Z,17.80
2022-08-30T23:21:16.878Z,17.70
2022-08-30T23:24:05.121Z,17.70
2022-08-30T23:26:50.819Z,17.70
2022-08-30T23:29:36.119Z,17.70
2022-08-30T23:32:21.743Z,17.70
2022-08-30T23:35:07.189Z,17.70
2022-08-30T23:37:53.369Z,17.70
2022-08-30T23:40:40.123Z,17.70
2022-08-30T23:43:26.694Z,17.60
2022-08-30T23:46:18.835Z,17.60
2022-08-30T23:49:08.787Z,17.60
2022-08-30T23:51:56.013Z,17.50
2022-08-30T23:54:42.462Z,17.50
2022-08-30T23:57:27.996Z,17.50
